This is the latest recevied weather packets stored in our database for station/object NN3A-3. If no packets are shown the sender has not sent any weather packets the latest 1 day(s).
| Time | Temp. | Humidity | Pressure | Rain* | Wind** | Luminosity | Snow |
|---|---|---|---|---|---|---|---|
| 1836274846 | 18.89° C | 93% | 25.4 hPa | 0 mm | 0 m/s | - | - |
| 1836274546 | 21.11° C | 93% | 25.4 hPa | 0 mm | 0 m/s | - | - |
| 1836274396 | 21.11° C | 93% | 25.4 hPa | 0 mm | 0 m/s | - | - |
| 1836274246 | 20.56° C | 93% | 25.4 hPa | 0 mm | 0 m/s | - | - |
| 1836273946 | 20.56° C | 93% | 25.4 hPa | 0 mm | 0 m/s | - | - |
| 1778054261 | 17.22° C | 80% | 1005.6 hPa | 0 mm | 0 m/s | - | - |
| 1778053962 | 17.22° C | 81% | 1005.6 hPa | 0 mm | 0 m/s | - | - |
| 1778053662 | 17.22° C | 80% | 1005.6 hPa | 0 mm | 0 m/s | - | - |
| 1778053363 | 17.22° C | 81% | 1005.6 hPa | 0 mm | 0 m/s | - | - |
| 1778052763 | 17.22° C | 80% | 1005.2 hPa | 0 mm | 0 m/s | - | - |
| 1778052463 | 17.22° C | 80% | 1005.6 hPa | 0 mm | 0 m/s | - | - |
| 1778051864 | 16.67° C | 80% | 1005.6 hPa | 0 mm | 0 m/s | - | - |
| 1778051564 | 16.67° C | 80% | 1005.9 hPa | 0 mm | 0 m/s | - | - |
| 1778050964 | 17.78° C | 80% | 1005.9 hPa | 0 mm | 0 m/s | - | - |
| 1778050663 | 17.22° C | 79% | 1005.9 hPa | 0 mm | 0 m/s | - | - |
| 1778050364 | 17.78° C | 78% | 1005.9 hPa | 0 mm | 0 m/s | - | - |
| 1778050064 | 17.78° C | 78% | 1005.9 hPa | 0 mm | 0 m/s | - | - |
| 1778049764 | 17.22° C | 78% | 1006.6 hPa | 0 mm | 0 m/s | - | - |
| 1778049464 | 17.78° C | 78% | 1006.6 hPa | 0 mm | 0 m/s | - | - |
| 1778049164 | 17.22° C | 79% | 1006.6 hPa | 0 mm | 0 m/s | - | - |
| 1778048865 | 17.78° C | 79% | 1006.6 hPa | 0 mm | 0 m/s | - | - |
| 1778048565 | 17.22° C | 79% | 1006.6 hPa | 0 mm | 0 m/s | - | - |
| 1778048264 | 17.22° C | 79% | 1006.6 hPa | 0 mm | 0 m/s | - | - |
| 1778047966 | 17.78° C | 79% | 1006.6 hPa | 0 mm | 0 m/s | - | - |
| 1778047366 | 17.22° C | 80% | 1006.6 hPa | 0 mm | 0 m/s | - | - |
* Rain latest hour (hover to see other rain measurements)
** Current wind speed in m/s (hover to see current wind gust speed)